sensor_id;sensor_type;location;lat;lon;timestamp;P1;durP1;ratioP1;P2;durP2;ratioP2
41629;SDS011;27322;49.488;8.480;2024-03-23T00:54:09;12.75;;;7.55;;
41629;SDS011;27322;49.488;8.480;2024-03-23T00:56:35;14.02;;;8.07;;
41629;SDS011;27322;49.488;8.480;2024-03-23T00:59:01;14.48;;;7.68;;
41629;SDS011;27322;49.488;8.480;2024-03-23T01:01:26;15.30;;;8.85;;
41629;SDS011;27322;49.488;8.480;2024-03-23T01:03:52;15.45;;;9.20;;
41629;SDS011;27322;49.488;8.480;2024-03-23T01:06:17;15.98;;;8.85;;
41629;SDS011;27322;49.488;8.480;2024-03-23T01:08:43;16.25;;;8.50;;
41629;SDS011;27322;49.488;8.480;2024-03-23T01:11:09;12.32;;;7.22;;
41629;SDS011;27322;49.488;8.480;2024-03-23T01:13:34;11.23;;;7.30;;
41629;SDS011;27322;49.488;8.480;2024-03-23T01:16:00;16.30;;;7.30;;
41629;SDS011;27322;49.488;8.480;2024-03-23T01:18:26;16.27;;;7.90;;
41629;SDS011;27322;49.488;8.480;2024-03-23T01:20:52;11.68;;;6.53;;
41629;SDS011;27322;49.488;8.480;2024-03-23T01:23:17;13.57;;;7.55;;
41629;SDS011;27322;49.488;8.480;2024-03-23T01:25:43;9.63;;;6.10;;
41629;SDS011;27322;49.488;8.480;2024-03-23T01:28:08;11.23;;;5.80;;
41629;SDS011;27322;49.488;8.480;2024-03-23T01:30:34;9.65;;;5.97;;
41629;SDS011;27322;49.488;8.480;2024-03-23T01:33:00;10.95;;;5.95;;
41629;SDS011;27322;49.488;8.480;2024-03-23T01:35:27;9.60;;;5.70;;
41629;SDS011;27322;49.488;8.480;2024-03-23T01:37:53;10.18;;;6.07;;
41629;SDS011;27322;49.488;8.480;2024-03-23T01:40:18;10.55;;;5.78;;
41629;SDS011;27322;49.488;8.480;2024-03-23T01:42:54;8.82;;;5.05;;
41629;SDS011;27322;49.488;8.480;2024-03-23T01:45:21;9.73;;;5.35;;
41629;SDS011;27322;49.488;8.480;2024-03-23T01:47:46;10.82;;;5.20;;
41629;SDS011;27322;49.488;8.480;2024-03-23T01:50:12;10.77;;;4.90;;
41629;SDS011;27322;49.488;8.480;2024-03-23T01:52:38;9.07;;;5.35;;
41629;SDS011;27322;49.488;8.480;2024-03-23T01:55:04;8.93;;;5.07;;
41629;SDS011;27322;49.488;8.480;2024-03-23T01:57:30;8.35;;;4.35;;
41629;SDS011;27322;49.488;8.480;2024-03-23T01:59:55;10.20;;;4.70;;
41629;SDS011;27322;49.488;8.480;2024-03-23T02:02:21;9.75;;;5.35;;
41629;SDS011;27322;49.488;8.480;2024-03-23T02:04:47;8.18;;;4.50;;
41629;SDS011;27322;49.488;8.480;2024-03-23T02:07:13;9.05;;;4.85;;
41629;SDS011;27322;49.488;8.480;2024-03-23T02:09:38;9.05;;;4.82;;
41629;SDS011;27322;49.488;8.480;2024-03-23T02:12:04;9.43;;;4.47;;
41629;SDS011;27322;49.488;8.480;2024-03-23T02:14:30;8.57;;;4.40;;
41629;SDS011;27322;49.488;8.480;2024-03-23T02:16:57;10.20;;;4.50;;
41629;SDS011;27322;49.488;8.480;2024-03-23T02:19:23;7.07;;;4.25;;
41629;SDS011;27322;49.488;8.480;2024-03-23T02:21:49;8.48;;;4.88;;
41629;SDS011;27322;49.488;8.480;2024-03-23T02:24:14;9.07;;;4.60;;
41629;SDS011;27322;49.488;8.480;2024-03-23T02:26:40;8.48;;;4.97;;
41629;SDS011;27322;49.488;8.480;2024-03-23T02:29:05;9.77;;;4.47;;
41629;SDS011;27322;49.488;8.480;2024-03-23T02:31:31;8.73;;;4.65;;
41629;SDS011;27322;49.488;8.480;2024-03-23T02:33:57;7.95;;;4.18;;
41629;SDS011;27322;49.488;8.480;2024-03-23T02:36:22;9.25;;;4.82;;
41629;SDS011;27322;49.488;8.480;2024-03-23T02:38:48;9.65;;;4.43;;
41629;SDS011;27322;49.488;8.480;2024-03-23T02:41:13;6.45;;;3.83;;
41629;SDS011;27322;49.488;8.480;2024-03-23T02:43:39;7.07;;;4.15;;
41629;SDS011;27322;49.488;8.480;2024-03-23T02:46:05;9.90;;;4.40;;
41629;SDS011;27322;49.488;8.480;2024-03-23T02:48:30;8.10;;;4.35;;
41629;SDS011;27322;49.488;8.480;2024-03-23T02:50:56;7.78;;;4.25;;
41629;SDS011;27322;49.488;8.480;2024-03-23T02:53:21;7.63;;;4.35;;
41629;SDS011;27322;49.488;8.480;2024-03-23T02:55:47;8.82;;;4.40;;
41629;SDS011;27322;49.488;8.480;2024-03-23T02:58:13;7.43;;;4.13;;
41629;SDS011;27322;49.488;8.480;2024-03-23T03:00:39;6.97;;;4.43;;
41629;SDS011;27322;49.488;8.480;2024-03-23T03:03:05;8.82;;;4.68;;
41629;SDS011;27322;49.488;8.480;2024-03-23T03:05:32;10.07;;;5.18;;
41629;SDS011;27322;49.488;8.480;2024-03-23T03:07:57;8.82;;;4.78;;
41629;SDS011;27322;49.488;8.480;2024-03-23T03:10:23;8.70;;;4.75;;
41629;SDS011;27322;49.488;8.480;2024-03-23T03:12:49;8.35;;;4.53;;
41629;SDS011;27322;49.488;8.480;2024-03-23T03:15:14;12.27;;;5.35;;
41629;SDS011;27322;49.488;8.480;2024-03-23T03:17:40;11.02;;;5.72;;
41629;SDS011;27322;49.488;8.480;2024-03-23T03:20:05;10.73;;;5.28;;
41629;SDS011;27322;49.488;8.480;2024-03-23T03:22:31;12.25;;;5.28;;
41629;SDS011;27322;49.488;8.480;2024-03-23T03:24:57;10.77;;;5.78;;
41629;SDS011;27322;49.488;8.480;2024-03-23T03:27:23;10.25;;;5.22;;
41629;SDS011;27322;49.488;8.480;2024-03-23T03:29:48;10.48;;;5.22;;
41629;SDS011;27322;49.488;8.480;2024-03-23T03:32:14;9.88;;;5.22;;
41629;SDS011;27322;49.488;8.480;2024-03-23T03:34:40;9.85;;;4.68;;
41629;SDS011;27322;49.488;8.480;2024-03-23T03:37:05;8.05;;;4.68;;
41629;SDS011;27322;49.488;8.480;2024-03-23T03:39:32;8.77;;;4.88;;
41629;SDS011;27322;49.488;8.480;2024-03-23T03:41:57;9.02;;;5.13;;
41629;SDS011;27322;49.488;8.480;2024-03-23T03:44:23;8.50;;;4.80;;
41629;SDS011;27322;49.488;8.480;2024-03-23T03:46:48;11.25;;;5.30;;
41629;SDS011;27322;49.488;8.480;2024-03-23T03:49:14;9.18;;;4.90;;
41629;SDS011;27322;49.488;8.480;2024-03-23T03:51:40;10.73;;;4.70;;
41629;SDS011;27322;49.488;8.480;2024-03-23T03:54:06;9.65;;;4.95;;
41629;SDS011;27322;49.488;8.480;2024-03-23T03:56:31;11.48;;;5.93;;
41629;SDS011;27322;49.488;8.480;2024-03-23T03:58:57;11.10;;;5.63;;
41629;SDS011;27322;49.488;8.480;2024-03-23T04:01:22;11.65;;;5.95;;
41629;SDS011;27322;49.488;8.480;2024-03-23T04:03:48;13.43;;;6.18;;
41629;SDS011;27322;49.488;8.480;2024-03-23T04:06:19;10.93;;;5.70;;
41629;SDS011;27322;49.488;8.480;2024-03-23T04:08:45;11.38;;;5.72;;
41629;SDS011;27322;49.488;8.480;2024-03-23T04:11:11;13.88;;;6.25;;
41629;SDS011;27322;49.488;8.480;2024-03-23T04:13:36;12.02;;;6.35;;
41629;SDS011;27322;49.488;8.480;2024-03-23T04:16:02;12.27;;;6.63;;
41629;SDS011;27322;49.488;8.480;2024-03-23T04:18:28;14.80;;;5.78;;
41629;SDS011;27322;49.488;8.480;2024-03-23T04:20:54;14.43;;;6.43;;
41629;SDS011;27322;49.488;8.480;2024-03-23T04:23:19;12.20;;;6.05;;
41629;SDS011;27322;49.488;8.480;2024-03-23T04:25:46;12.93;;;6.07;;
41629;SDS011;27322;49.488;8.480;2024-03-23T04:28:11;12.52;;;6.18;;
41629;SDS011;27322;49.488;8.480;2024-03-23T04:30:37;11.95;;;6.00;;
41629;SDS011;27322;49.488;8.480;2024-03-23T04:33:02;14.70;;;6.50;;
41629;SDS011;27322;49.488;8.480;2024-03-23T04:35:28;13.95;;;6.38;;
41629;SDS011;27322;49.488;8.480;2024-03-23T04:37:54;13.18;;;5.93;;
41629;SDS011;27322;49.488;8.480;2024-03-23T04:40:23;10.15;;;5.40;;
41629;SDS011;27322;49.488;8.480;2024-03-23T04:42:49;13.60;;;6.55;;
41629;SDS011;27322;49.488;8.480;2024-03-23T04:45:15;13.45;;;6.07;;
41629;SDS011;27322;49.488;8.480;2024-03-23T04:47:40;11.68;;;5.65;;
41629;SDS011;27322;49.488;8.480;2024-03-23T04:50:06;13.40;;;6.07;;
41629;SDS011;27322;49.488;8.480;2024-03-23T04:52:32;10.70;;;5.47;;
41629;SDS011;27322;49.488;8.480;2024-03-23T04:54:57;11.50;;;5.30;;
41629;SDS011;27322;49.488;8.480;2024-03-23T04:57:23;11.85;;;4.55;;
41629;SDS011;27322;49.488;8.480;2024-03-23T04:59:49;7.55;;;3.47;;
41629;SDS011;27322;49.488;8.480;2024-03-23T05:02:14;7.10;;;2.90;;
41629;SDS011;27322;49.488;8.480;2024-03-23T05:04:40;7.47;;;3.05;;
41629;SDS011;27322;49.488;8.480;2024-03-23T05:07:06;6.70;;;2.55;;
41629;SDS011;27322;49.488;8.480;2024-03-23T05:09:31;6.82;;;2.22;;
41629;SDS011;27322;49.488;8.480;2024-03-23T05:11:58;6.00;;;2.17;;
41629;SDS011;27322;49.488;8.480;2024-03-23T05:14:25;6.20;;;1.77;;
41629;SDS011;27322;49.488;8.480;2024-03-23T05:16:51;5.68;;;2.00;;
41629;SDS011;27322;49.488;8.480;2024-03-23T05:19:17;4.05;;;1.60;;
41629;SDS011;27322;49.488;8.480;2024-03-23T05:21:43;5.07;;;1.40;;
41629;SDS011;27322;49.488;8.480;2024-03-23T05:24:08;2.75;;;1.25;;
41629;SDS011;27322;49.488;8.480;2024-03-23T05:26:34;4.90;;;1.95;;
41629;SDS011;27322;49.488;8.480;2024-03-23T05:29:01;4.65;;;2.13;;
41629;SDS011;27322;49.488;8.480;2024-03-23T05:31:28;4.85;;;2.28;;
41629;SDS011;27322;49.488;8.480;2024-03-23T05:34:00;4.57;;;1.75;;
41629;SDS011;27322;49.488;8.480;2024-03-23T05:36:26;4.97;;;1.67;;
41629;SDS011;27322;49.488;8.480;2024-03-23T05:38:51;4.88;;;1.58;;
41629;SDS011;27322;49.488;8.480;2024-03-23T05:41:17;3.45;;;1.50;;
41629;SDS011;27322;49.488;8.480;2024-03-23T05:43:43;3.55;;;1.45;;
41629;SDS011;27322;49.488;8.480;2024-03-23T05:46:08;2.03;;;0.85;;
41629;SDS011;27322;49.488;8.480;2024-03-23T05:48:34;2.17;;;0.82;;
41629;SDS011;27322;49.488;8.480;2024-03-23T05:51:00;3.75;;;1.10;;
41629;SDS011;27322;49.488;8.480;2024-03-23T05:53:26;4.50;;;1.08;;
41629;SDS011;27322;49.488;8.480;2024-03-23T05:55:59;2.72;;;1.00;;
41629;SDS011;27322;49.488;8.480;2024-03-23T05:58:28;2.20;;;1.10;;
41629;SDS011;27322;49.488;8.480;2024-03-23T06:00:57;3.22;;;1.17;;
41629;SDS011;27322;49.488;8.480;2024-03-23T06:03:25;2.88;;;1.30;;
41629;SDS011;27322;49.488;8.480;2024-03-23T06:05:51;2.33;;;1.20;;
41629;SDS011;27322;49.488;8.480;2024-03-23T06:08:18;3.63;;;1.10;;
41629;SDS011;27322;49.488;8.480;2024-03-23T06:10:44;2.47;;;1.00;;
41629;SDS011;27322;49.488;8.480;2024-03-23T06:13:13;4.53;;;0.75;;
41629;SDS011;27322;49.488;8.480;2024-03-23T06:15:39;1.50;;;0.70;;
41629;SDS011;27322;49.488;8.480;2024-03-23T06:18:05;2.72;;;0.80;;
41629;SDS011;27322;49.488;8.480;2024-03-23T06:20:32;1.48;;;0.70;;
41629;SDS011;27322;49.488;8.480;2024-03-23T06:22:58;1.38;;;0.60;;
41629;SDS011;27322;49.488;8.480;2024-03-23T06:25:25;1.05;;;0.60;;
41629;SDS011;27322;49.488;8.480;2024-03-23T06:27:50;1.52;;;0.55;;
41629;SDS011;27322;49.488;8.480;2024-03-23T06:30:16;1.20;;;0.40;;
41629;SDS011;27322;49.488;8.480;2024-03-23T06:32:41;1.15;;;0.50;;
41629;SDS011;27322;49.488;8.480;2024-03-23T06:35:07;3.45;;;0.47;;
41629;SDS011;27322;49.488;8.480;2024-03-23T06:37:35;1.13;;;0.50;;
41629;SDS011;27322;49.488;8.480;2024-03-23T06:40:01;0.73;;;0.35;;
41629;SDS011;27322;49.488;8.480;2024-03-23T06:42:26;0.63;;;0.30;;
41629;SDS011;27322;49.488;8.480;2024-03-23T06:44:52;1.80;;;0.30;;
41629;SDS011;27322;49.488;8.480;2024-03-23T06:47:17;0.47;;;0.22;;
41629;SDS011;27322;49.488;8.480;2024-03-23T06:49:43;2.38;;;0.35;;
41629;SDS011;27322;49.488;8.480;2024-03-23T06:52:09;0.43;;;0.30;;
41629;SDS011;27322;49.488;8.480;2024-03-23T06:54:34;0.30;;;0.30;;
41629;SDS011;27322;49.488;8.480;2024-03-23T06:57:00;0.60;;;0.30;;
41629;SDS011;27322;49.488;8.480;2024-03-23T06:59:25;1.00;;;0.43;;
41629;SDS011;27322;49.488;8.480;2024-03-23T07:01:51;0.95;;;0.43;;
41629;SDS011;27322;49.488;8.480;2024-03-23T07:04:16;3.40;;;0.50;;
41629;SDS011;27322;49.488;8.480;2024-03-23T07:06:44;2.83;;;0.40;;
41629;SDS011;27322;49.488;8.480;2024-03-23T07:09:10;0.40;;;0.30;;
41629;SDS011;27322;49.488;8.480;2024-03-23T07:11:36;0.68;;;0.30;;
41629;SDS011;27322;49.488;8.480;2024-03-23T07:14:01;0.52;;;0.30;;
41629;SDS011;27322;49.488;8.480;2024-03-23T07:16:27;0.25;;;0.20;;
41629;SDS011;27322;49.488;8.480;2024-03-23T07:18:53;1.05;;;0.20;;
41629;SDS011;27322;49.488;8.480;2024-03-23T07:21:19;0.93;;;0.30;;
41629;SDS011;27322;49.488;8.480;2024-03-23T07:23:44;3.80;;;0.60;;
41629;SDS011;27322;49.488;8.480;2024-03-23T07:26:10;1.92;;;0.30;;
41629;SDS011;27322;49.488;8.480;2024-03-23T07:28:36;0.40;;;0.30;;
41629;SDS011;27322;49.488;8.480;2024-03-23T07:31:13;0.98;;;0.50;;
41629;SDS011;27322;49.488;8.480;2024-03-23T07:33:43;2.05;;;0.40;;
41629;SDS011;27322;49.488;8.480;2024-03-23T07:36:10;0.70;;;0.40;;
41629;SDS011;27322;49.488;8.480;2024-03-23T07:38:35;1.83;;;0.60;;
41629;SDS011;27322;49.488;8.480;2024-03-23T07:41:05;2.15;;;0.50;;
41629;SDS011;27322;49.488;8.480;2024-03-23T07:43:31;2.70;;;0.52;;
41629;SDS011;27322;49.488;8.480;2024-03-23T07:45:57;1.90;;;0.43;;
41629;SDS011;27322;49.488;8.480;2024-03-23T07:48:23;1.45;;;0.50;;
41629;SDS011;27322;49.488;8.480;2024-03-23T07:50:58;1.67;;;0.60;;
41629;SDS011;27322;49.488;8.480;2024-03-23T07:53:34;2.13;;;0.80;;
41629;SDS011;27322;49.488;8.480;2024-03-23T07:56:07;2.22;;;0.65;;
41629;SDS011;27322;49.488;8.480;2024-03-23T07:58:34;1.88;;;0.60;;
41629;SDS011;27322;49.488;8.480;2024-03-23T08:01:19;1.83;;;0.70;;
41629;SDS011;27322;49.488;8.480;2024-03-23T08:03:45;3.72;;;0.88;;
41629;SDS011;27322;49.488;8.480;2024-03-23T08:08:37;2.70;;;0.70;;
41629;SDS011;27322;49.488;8.480;2024-03-23T08:11:04;3.78;;;0.80;;
41629;SDS011;27322;49.488;8.480;2024-03-23T08:13:30;2.92;;;0.80;;
41629;SDS011;27322;49.488;8.480;2024-03-23T08:15:59;3.30;;;0.80;;
41629;SDS011;27322;49.488;8.480;2024-03-23T08:18:25;2.63;;;0.73;;
41629;SDS011;27322;49.488;8.480;2024-03-23T08:23:29;2.00;;;0.70;;
41629;SDS011;27322;49.488;8.480;2024-03-23T08:25:59;2.88;;;0.85;;
41629;SDS011;27322;49.488;8.480;2024-03-23T08:28:26;3.90;;;0.80;;
41629;SDS011;27322;49.488;8.480;2024-03-23T08:30:53;3.00;;;0.90;;
41629;SDS011;27322;49.488;8.480;2024-03-23T08:33:19;3.88;;;1.02;;
41629;SDS011;27322;49.488;8.480;2024-03-23T08:35:55;3.50;;;1.23;;
41629;SDS011;27322;49.488;8.480;2024-03-23T08:38:22;3.05;;;0.90;;
41629;SDS011;27322;49.488;8.480;2024-03-23T08:40:55;3.67;;;0.70;;
41629;SDS011;27322;49.488;8.480;2024-03-23T08:43:25;3.40;;;1.00;;
41629;SDS011;27322;49.488;8.480;2024-03-23T08:45:51;5.75;;;1.15;;
41629;SDS011;27322;49.488;8.480;2024-03-23T08:48:18;4.57;;;1.00;;
41629;SDS011;27322;49.488;8.480;2024-03-23T08:50:45;3.78;;;1.08;;
41629;SDS011;27322;49.488;8.480;2024-03-23T08:53:12;2.90;;;0.88;;
41629;SDS011;27322;49.488;8.480;2024-03-23T08:55:37;2.60;;;0.80;;
41629;SDS011;27322;49.488;8.480;2024-03-23T08:58:03;2.28;;;0.95;;
41629;SDS011;27322;49.488;8.480;2024-03-23T09:00:29;5.43;;;1.02;;
41629;SDS011;27322;49.488;8.480;2024-03-23T09:02:55;6.78;;;0.98;;
41629;SDS011;27322;49.488;8.480;2024-03-23T09:05:22;2.33;;;1.00;;
41629;SDS011;27322;49.488;8.480;2024-03-23T09:07:49;3.97;;;1.13;;
41629;SDS011;27322;49.488;8.480;2024-03-23T09:10:14;4.55;;;1.15;;
41629;SDS011;27322;49.488;8.480;2024-03-23T09:12:40;4.47;;;1.20;;
41629;SDS011;27322;49.488;8.480;2024-03-23T09:15:06;3.58;;;1.10;;
41629;SDS011;27322;49.488;8.480;2024-03-23T09:17:32;5.35;;;1.40;;
41629;SDS011;27322;49.488;8.480;2024-03-23T09:19:57;5.72;;;1.20;;
41629;SDS011;27322;49.488;8.480;2024-03-23T09:22:23;5.85;;;1.60;;
41629;SDS011;27322;49.488;8.480;2024-03-23T09:24:48;4.80;;;1.20;;
41629;SDS011;27322;49.488;8.480;2024-03-23T09:27:14;6.18;;;1.30;;
41629;SDS011;27322;49.488;8.480;2024-03-23T09:29:39;3.72;;;1.20;;
41629;SDS011;27322;49.488;8.480;2024-03-23T09:32:05;5.60;;;1.40;;
41629;SDS011;27322;49.488;8.480;2024-03-23T09:34:31;6.32;;;1.55;;
41629;SDS011;27322;49.488;8.480;2024-03-23T09:36:56;4.63;;;1.45;;
41629;SDS011;27322;49.488;8.480;2024-03-23T09:39:22;6.22;;;1.73;;
41629;SDS011;27322;49.488;8.480;2024-03-23T09:41:47;7.38;;;1.70;;
41629;SDS011;27322;49.488;8.480;2024-03-23T09:44:13;3.85;;;1.60;;
41629;SDS011;27322;49.488;8.480;2024-03-23T09:46:39;4.15;;;1.30;;
41629;SDS011;27322;49.488;8.480;2024-03-23T09:49:06;4.80;;;1.13;;
41629;SDS011;27322;49.488;8.480;2024-03-23T09:51:35;3.38;;;1.50;;
41629;SDS011;27322;49.488;8.480;2024-03-23T09:54:02;4.38;;;1.15;;
41629;SDS011;27322;49.488;8.480;2024-03-23T09:56:28;6.30;;;1.20;;
41629;SDS011;27322;49.488;8.480;2024-03-23T09:59:03;4.45;;;1.10;;
41629;SDS011;27322;49.488;8.480;2024-03-23T10:01:29;3.05;;;1.20;;
41629;SDS011;27322;49.488;8.480;2024-03-23T10:03:55;4.25;;;0.98;;
41629;SDS011;27322;49.488;8.480;2024-03-23T10:06:21;4.60;;;1.10;;
41629;SDS011;27322;49.488;8.480;2024-03-23T10:08:49;6.03;;;0.90;;
41629;SDS011;27322;49.488;8.480;2024-03-23T10:11:16;3.45;;;0.90;;
41629;SDS011;27322;49.488;8.480;2024-03-23T10:13:42;5.72;;;1.30;;
41629;SDS011;27322;49.488;8.480;2024-03-23T10:16:09;5.78;;;0.90;;
41629;SDS011;27322;49.488;8.480;2024-03-23T10:18:41;6.40;;;1.20;;
41629;SDS011;27322;49.488;8.480;2024-03-23T10:23:33;4.88;;;0.80;;
41629;SDS011;27322;49.488;8.480;2024-03-23T10:26:15;2.00;;;0.70;;
41629;SDS011;27322;49.488;8.480;2024-03-23T10:31:21;3.35;;;0.80;;
41629;SDS011;27322;49.488;8.480;2024-03-23T10:33:47;4.38;;;0.80;;
41629;SDS011;27322;49.488;8.480;2024-03-23T10:36:13;4.30;;;0.85;;
41629;SDS011;27322;49.488;8.480;2024-03-23T10:38:40;5.70;;;0.70;;
41629;SDS011;27322;49.488;8.480;2024-03-23T10:41:09;6.47;;;0.90;;
41629;SDS011;27322;49.488;8.480;2024-03-23T10:43:36;4.95;;;0.80;;
41629;SDS011;27322;49.488;8.480;2024-03-23T10:46:02;4.50;;;1.45;;
41629;SDS011;27322;49.488;8.480;2024-03-23T10:48:28;4.70;;;0.98;;
41629;SDS011;27322;49.488;8.480;2024-03-23T10:50:54;3.33;;;0.90;;
41629;SDS011;27322;49.488;8.480;2024-03-23T10:53:21;3.38;;;0.95;;
41629;SDS011;27322;49.488;8.480;2024-03-23T10:55:50;6.03;;;0.90;;
41629;SDS011;27322;49.488;8.480;2024-03-23T10:58:16;3.30;;;0.80;;
41629;SDS011;27322;49.488;8.480;2024-03-23T11:00:46;6.60;;;0.90;;
41629;SDS011;27322;49.488;8.480;2024-03-23T11:03:31;3.80;;;0.80;;
41629;SDS011;27322;49.488;8.480;2024-03-23T11:06:02;4.18;;;0.80;;
41629;SDS011;27322;49.488;8.480;2024-03-23T11:08:35;3.83;;;0.77;;
41629;SDS011;27322;49.488;8.480;2024-03-23T11:11:13;4.00;;;1.08;;
41629;SDS011;27322;49.488;8.480;2024-03-23T11:13:50;3.40;;;0.77;;
41629;SDS011;27322;49.488;8.480;2024-03-23T11:18:48;6.68;;;1.00;;
41629;SDS011;27322;49.488;8.480;2024-03-23T11:24:21;4.47;;;1.08;;
41629;SDS011;27322;49.488;8.480;2024-03-23T11:26:47;4.03;;;0.90;;
41629;SDS011;27322;49.488;8.480;2024-03-23T11:29:14;2.65;;;0.98;;
41629;SDS011;27322;49.488;8.480;2024-03-23T11:31:51;3.63;;;0.85;;
41629;SDS011;27322;49.488;8.480;2024-03-23T11:34:17;8.10;;;1.02;;
41629;SDS011;27322;49.488;8.480;2024-03-23T11:36:44;4.15;;;0.80;;
41629;SDS011;27322;49.488;8.480;2024-03-23T11:39:19;3.70;;;0.85;;
41629;SDS011;27322;49.488;8.480;2024-03-23T11:41:52;5.72;;;1.05;;
41629;SDS011;27322;49.488;8.480;2024-03-23T11:44:19;7.75;;;1.10;;
41629;SDS011;27322;49.488;8.480;2024-03-23T11:46:50;4.53;;;0.50;;
41629;SDS011;27322;49.488;8.480;2024-03-23T11:49:24;3.33;;;0.73;;
41629;SDS011;27322;49.488;8.480;2024-03-23T11:51:54;2.70;;;0.90;;
41629;SDS011;27322;49.488;8.480;2024-03-23T11:54:21;2.38;;;0.90;;
41629;SDS011;27322;49.488;8.480;2024-03-23T11:56:53;2.78;;;0.90;;
41629;SDS011;27322;49.488;8.480;2024-03-23T12:02:15;3.17;;;0.98;;
41629;SDS011;27322;49.488;8.480;2024-03-23T12:04:43;3.97;;;1.23;;
41629;SDS011;27322;49.488;8.480;2024-03-23T12:07:18;3.97;;;1.10;;
41629;SDS011;27322;49.488;8.480;2024-03-23T12:09:45;6.05;;;1.45;;
41629;SDS011;27322;49.488;8.480;2024-03-23T12:12:18;5.88;;;1.50;;
41629;SDS011;27322;49.488;8.480;2024-03-23T12:14:44;3.17;;;1.13;;
41629;SDS011;27322;49.488;8.480;2024-03-23T12:17:13;3.25;;;1.30;;
41629;SDS011;27322;49.488;8.480;2024-03-23T12:19:40;4.57;;;1.50;;
41629;SDS011;27322;49.488;8.480;2024-03-23T12:22:06;3.72;;;1.20;;
41629;SDS011;27322;49.488;8.480;2024-03-23T12:24:33;3.95;;;1.20;;
41629;SDS011;27322;49.488;8.480;2024-03-23T12:27:04;4.13;;;1.20;;
41629;SDS011;27322;49.488;8.480;2024-03-23T12:29:30;4.60;;;1.20;;
41629;SDS011;27322;49.488;8.480;2024-03-23T12:31:58;3.58;;;1.10;;
41629;SDS011;27322;49.488;8.480;2024-03-23T12:34:25;5.10;;;1.10;;
41629;SDS011;27322;49.488;8.480;2024-03-23T12:36:50;4.05;;;0.85;;
41629;SDS011;27322;49.488;8.480;2024-03-23T12:39:16;1.90;;;0.70;;
41629;SDS011;27322;49.488;8.480;2024-03-23T12:41:41;1.55;;;0.63;;
41629;SDS011;27322;49.488;8.480;2024-03-23T12:44:07;1.60;;;0.60;;
41629;SDS011;27322;49.488;8.480;2024-03-23T12:46:34;2.28;;;0.80;;
41629;SDS011;27322;49.488;8.480;2024-03-23T12:49:00;3.05;;;0.77;;
41629;SDS011;27322;49.488;8.480;2024-03-23T12:51:25;4.43;;;1.05;;
41629;SDS011;27322;49.488;8.480;2024-03-23T12:53:51;3.08;;;0.93;;
41629;SDS011;27322;49.488;8.480;2024-03-23T12:56:16;3.70;;;0.80;;
41629;SDS011;27322;49.488;8.480;2024-03-23T12:58:42;1.63;;;0.50;;
41629;SDS011;27322;49.488;8.480;2024-03-23T13:01:08;1.05;;;0.30;;
41629;SDS011;27322;49.488;8.480;2024-03-23T13:03:33;2.30;;;0.40;;
41629;SDS011;27322;49.488;8.480;2024-03-23T13:05:59;2.08;;;0.50;;
41629;SDS011;27322;49.488;8.480;2024-03-23T13:08:24;3.28;;;0.50;;
41629;SDS011;27322;49.488;8.480;2024-03-23T13:10:53;1.58;;;0.40;;
41629;SDS011;27322;49.488;8.480;2024-03-23T13:13:18;1.30;;;0.32;;
41629;SDS011;27322;49.488;8.480;2024-03-23T13:15:50;2.15;;;0.40;;
41629;SDS011;27322;49.488;8.480;2024-03-23T13:18:16;1.85;;;0.40;;
41629;SDS011;27322;49.488;8.480;2024-03-23T13:20:41;2.75;;;0.40;;
41629;SDS011;27322;49.488;8.480;2024-03-23T13:23:07;2.53;;;0.50;;
41629;SDS011;27322;49.488;8.480;2024-03-23T13:25:33;1.63;;;0.60;;
41629;SDS011;27322;49.488;8.480;2024-03-23T13:27:59;1.63;;;0.45;;
41629;SDS011;27322;49.488;8.480;2024-03-23T13:30:26;1.20;;;0.43;;
41629;SDS011;27322;49.488;8.480;2024-03-23T13:32:51;2.70;;;0.57;;
41629;SDS011;27322;49.488;8.480;2024-03-23T13:35:17;1.45;;;0.55;;
41629;SDS011;27322;49.488;8.480;2024-03-23T13:37:43;2.58;;;0.60;;
41629;SDS011;27322;49.488;8.480;2024-03-23T13:40:09;1.95;;;0.50;;
41629;SDS011;27322;49.488;8.480;2024-03-23T13:42:35;1.95;;;0.50;;
41629;SDS011;27322;49.488;8.480;2024-03-23T13:45:00;1.67;;;0.38;;
41629;SDS011;27322;49.488;8.480;2024-03-23T13:47:26;0.80;;;0.30;;
41629;SDS011;27322;49.488;8.480;2024-03-23T13:49:53;1.25;;;0.45;;
41629;SDS011;27322;49.488;8.480;2024-03-23T13:52:18;4.78;;;0.50;;
41629;SDS011;27322;49.488;8.480;2024-03-23T13:54:47;2.17;;;0.60;;
41629;SDS011;27322;49.488;8.480;2024-03-23T13:57:13;1.05;;;0.40;;
41629;SDS011;27322;49.488;8.480;2024-03-23T13:59:39;1.33;;;0.50;;
41629;SDS011;27322;49.488;8.480;2024-03-23T14:02:04;1.63;;;0.50;;
41629;SDS011;27322;49.488;8.480;2024-03-23T14:04:30;2.20;;;0.43;;
41629;SDS011;27322;49.488;8.480;2024-03-23T14:06:56;1.10;;;0.50;;
41629;SDS011;27322;49.488;8.480;2024-03-23T14:09:21;1.38;;;0.50;;
41629;SDS011;27322;49.488;8.480;2024-03-23T14:11:50;1.55;;;0.50;;
41629;SDS011;27322;49.488;8.480;2024-03-23T14:14:16;2.28;;;0.60;;
41629;SDS011;27322;49.488;8.480;2024-03-23T14:16:42;1.60;;;0.50;;
41629;SDS011;27322;49.488;8.480;2024-03-23T14:19:08;2.15;;;0.65;;
41629;SDS011;27322;49.488;8.480;2024-03-23T14:21:34;3.20;;;0.70;;
41629;SDS011;27322;49.488;8.480;2024-03-23T14:24:00;1.38;;;0.45;;
41629;SDS011;27322;49.488;8.480;2024-03-23T14:26:26;3.08;;;0.60;;
41629;SDS011;27322;49.488;8.480;2024-03-23T14:28:52;4.15;;;0.60;;
41629;SDS011;27322;49.488;8.480;2024-03-23T14:31:17;2.95;;;0.63;;
41629;SDS011;27322;49.488;8.480;2024-03-23T14:33:43;3.42;;;0.65;;
41629;SDS011;27322;49.488;8.480;2024-03-23T14:36:12;2.67;;;0.73;;
41629;SDS011;27322;49.488;8.480;2024-03-23T14:38:38;2.28;;;0.68;;
41629;SDS011;27322;49.488;8.480;2024-03-23T14:41:04;1.00;;;0.50;;
41629;SDS011;27322;49.488;8.480;2024-03-23T14:43:29;0.73;;;0.35;;
41629;SDS011;27322;49.488;8.480;2024-03-23T14:46:08;2.53;;;0.60;;
41629;SDS011;27322;49.488;8.480;2024-03-23T14:48:42;2.50;;;0.60;;
41629;SDS011;27322;49.488;8.480;2024-03-23T14:51:09;2.45;;;0.73;;
41629;SDS011;27322;49.488;8.480;2024-03-23T14:53:36;2.55;;;0.65;;
41629;SDS011;27322;49.488;8.480;2024-03-23T14:56:05;3.03;;;0.90;;
41629;SDS011;27322;49.488;8.480;2024-03-23T14:58:31;2.08;;;0.70;;
41629;SDS011;27322;49.488;8.480;2024-03-23T15:01:03;2.03;;;0.60;;
41629;SDS011;27322;49.488;8.480;2024-03-23T15:03:29;1.45;;;0.40;;
41629;SDS011;27322;49.488;8.480;2024-03-23T15:05:55;2.22;;;0.65;;
41629;SDS011;27322;49.488;8.480;2024-03-23T15:08:22;1.70;;;0.68;;
41629;SDS011;27322;49.488;8.480;2024-03-23T15:10:48;1.67;;;0.70;;
41629;SDS011;27322;49.488;8.480;2024-03-23T15:13:14;2.10;;;0.70;;
41629;SDS011;27322;49.488;8.480;2024-03-23T15:15:42;1.67;;;0.60;;
41629;SDS011;27322;49.488;8.480;2024-03-23T15:18:13;2.00;;;0.60;;
41629;SDS011;27322;49.488;8.480;2024-03-23T15:20:56;1.27;;;0.50;;
41629;SDS011;27322;49.488;8.480;2024-03-23T15:23:23;2.03;;;0.60;;
41629;SDS011;27322;49.488;8.480;2024-03-23T15:25:55;1.20;;;0.40;;
41629;SDS011;27322;49.488;8.480;2024-03-23T15:28:22;2.35;;;0.57;;
41629;SDS011;27322;49.488;8.480;2024-03-23T15:30:48;2.75;;;0.47;;
41629;SDS011;27322;49.488;8.480;2024-03-23T15:33:14;4.15;;;1.00;;
41629;SDS011;27322;49.488;8.480;2024-03-23T15:35:40;4.43;;;1.05;;
41629;SDS011;27322;49.488;8.480;2024-03-23T15:38:05;3.53;;;1.15;;
41629;SDS011;27322;49.488;8.480;2024-03-23T15:40:31;3.65;;;0.95;;
41629;SDS011;27322;49.488;8.480;2024-03-23T15:42:56;3.53;;;0.93;;
41629;SDS011;27322;49.488;8.480;2024-03-23T15:45:22;5.28;;;1.30;;
41629;SDS011;27322;49.488;8.480;2024-03-23T15:47:47;4.60;;;1.40;;
41629;SDS011;27322;49.488;8.480;2024-03-23T15:50:13;4.15;;;1.27;;
41629;SDS011;27322;49.488;8.480;2024-03-23T15:52:38;1.25;;;0.50;;
41629;SDS011;27322;49.488;8.480;2024-03-23T15:55:04;1.73;;;0.60;;